Flight Track Log - Related Links

Times and Time Zones

All times are in EDT time to prevent confusion due to time zone crossing. See the GJS3706 flight status page for this flight to view local times or setup timezone preferences in your user account.


Time Position Orientation Groundspeed Altitude Reporting Facility
EDT Latitude Longitude Course Direction KTS MPH feet Rate Location/Type
Sat 09:10:12 AM 41.9811 -87.9450 66° East 186 214 1,800  Level Chicago Center
Sat 09:10:51 AM 42.0167 -87.9167 31° Northeast 208 239 3,500 2,258 Climbing Chicago TRACON
Sat 09:11:45 AM 42.0667 -87.8667 37° Northeast 268 308 5,300 1,765 Climbing Chicago TRACON
Sat 09:12:00 AM 42.1113 -87.5008 63° Northeast  Level FlightAware Approximate
Sat 09:12:16 AM 42.0681 -87.8356 87° East 255 293 6,000  Level Chicago Center
Sat 09:13:00 AM 42.1618 -87.3645 66° East  Level FlightAware Approximate
Sat 09:13:17 AM 42.0986 -87.7192 70° East 277 319 9,200  Level Chicago Center
Sat 09:14:00 AM 42.2082 -87.2254 66° East  Level FlightAware Approximate
Sat 09:14:19 AM 42.1269 -87.6164 70° East 290 334 11,700  Level Chicago Center
Sat 09:15:00 AM 42.2546 -87.0863 66° East  Level FlightAware Approximate
Sat 09:15:21 AM 42.1486 -87.4975 76° East 322 371 12,900  Level Chicago Center
Sat 09:16:22 AM 42.1572 -87.3617 85° East 361 415 14,700 1,854 Climbing Chicago Center
Sat 09:17:24 AM 42.1667 -87.2228 85° East 370 426 16,700 1,951 Climbing Chicago Center
Sat 09:18:25 AM 42.1772 -87.0769 84° East 387 445 18,700 1,805 Climbing Chicago Center
Sat 09:19:27 AM 42.1875 -86.9308 85° East 392 451 20,400 1,790 Climbing Chicago Center
Sat 09:20:29 AM 42.2006 -86.7497 84° East 403 464 22,400 1,659 Climbing Chicago Center
Sat 09:21:30 AM 42.2089 -86.5922 86° East 416 479 23,800 1,317 Climbing Chicago Center
Sat 09:22:32 AM 42.2200 -86.4333 85° East 423 487 25,100 1,210 Climbing Chicago Center
Sat 09:23:34 AM 42.2297 -86.2719 85° East 429 494 26,300 1,171 Climbing Chicago Center
Sat 09:24:35 AM 42.2403 -86.1058 85° East 440 506 27,500 1,268 Climbing Chicago Center
Sat 09:25:37 AM 42.2517 -85.9208 85° East 442 509 28,900 1,258 Climbing Chicago Center
Sat 09:26:39 AM 42.2611 -85.7556 86° East 444 511 30,100 1,161 Climbing Chicago Center
Sat 09:27:41 AM 42.2700 -85.5900 86° East 445 512 31,300 927 Climbing Chicago Center
Sat 09:28:42 AM 42.2794 -85.4222 86° East 451 519 32,000 732 Climbing Chicago Center
Sat 09:29:44 AM 42.2892 -85.2522 86° East 456 525 32,800 823 Climbing Chicago Center
Sat 09:30:46 AM 42.2983 -85.0831 86° East 456 525 33,700 968 Climbing Chicago Center
Sat 09:31:48 AM 42.2978 -84.8808 90° East 451 519 34,800 976 Climbing Chicago Center
Sat 09:32:49 AM 42.2925 -84.7125 92° East 450 518 35,700 829 Climbing Chicago Center
Sat 09:33:51 AM 42.2886 -84.5461 92° East 448 516 36,500 629 Climbing Chicago Center
Sat 09:34:53 AM 42.2997 -84.3792 85° East 448 516 37,000 242 Climbing Chicago Center
Sat 09:35:55 AM 42.3233 -84.2139 79° East 449 517 37,000  Level Chicago Center
Sat 09:36:56 AM 42.3478 -84.0461 79° East 456 525 37,000  Level Chicago Center
Sat 09:37:58 AM 42.3706 -83.8789 79° East 454 522 37,000  Level Chicago Center
Sat 09:39:09 AM 42.4025 -83.6539 79° East 449 517 37,000  Level Cleveland Center
Sat 09:40:09 AM 42.4133 -83.4772 85° East 464 534 37,000  Level Cleveland Center
Sat 09:41:09 AM 42.4175 -83.3031 88° East 464 534 37,000  Level Cleveland Center
Sat 09:42:09 AM 42.4236 -83.1289 87° East 456 525 37,000  Level Cleveland Center
Sat 09:43:09 AM 42.4317 -82.9519 86° East 461 531 37,000  Level Cleveland Center
Sat 09:44:08 AM 42.4456 -82.7750 84° East 461 531 37,000  Level Cleveland Center
Sat 09:45:08 AM 42.4592 -82.6011 84° East 461 531 37,000  Level Cleveland Center
Sat 09:46:08 AM 42.4706 -82.4214 85° East 461 531 37,000  Level Cleveland Center
Sat 09:47:08 AM 42.4836 -82.2469 84° East 461 531 37,000  Level Cleveland Center
Sat 09:48:09 AM 42.4944 -82.0700 85° East 461 531 37,000  Level Cleveland Center
Sat 09:49:09 AM 42.5069 -81.8928 84° East 466 536 37,000  Level Cleveland Center
Sat 09:50:09 AM 42.5169 -81.7353 85° East 466 536 37,000  Level Cleveland Center
Sat 09:51:09 AM 42.5292 -81.5439 85° East 461 531 37,000  Level Cleveland Center
Sat 09:52:09 AM 42.5408 -81.3581 85° East 466 536 37,000  Level Cleveland Center
Sat 09:53:09 AM 42.5525 -81.1836 85° East 471 542 37,000  Level Cleveland Center
Sat 09:54:09 AM 42.5636 -81.0061 85° East 471 542 37,000  Level Cleveland Center
Sat 09:55:08 AM 42.5725 -80.8256 86° East 476 548 37,000  Level Cleveland Center
Sat 09:56:08 AM 42.5853 -80.6481 84° East 476 548 37,000  Level Cleveland Center
Sat 09:57:09 AM 42.5914 -80.4703 87° East 476 548 37,000  Level Cleveland Center
Sat 09:58:08 AM 42.6017 -80.2928 85° East 476 548 37,000  Level Cleveland Center
Sat 09:59:09 AM 42.6072 -80.1292 87° East 476 548 37,000  Level Cleveland Center
Sat 10:00:09 AM 42.6211 -79.9400 84° East 476 548 37,000  Level Cleveland Center
Sat 10:01:08 AM 42.6283 -79.7619 87° East 476 548 37,000  Level Cleveland Center
Sat 10:02:09 AM 42.6372 -79.5869 86° East 471 542 37,000  Level Cleveland Center
Sat 10:03:09 AM 42.6439 -79.4089 87° East 466 536 37,000  Level Cleveland Center
Sat 10:04:08 AM 42.6525 -79.2311 86° East 466 536 37,000  Level Cleveland Center
Sat 10:05:08 AM 42.6606 -79.0558 86° East 466 536 37,000  Level Cleveland Center
Sat 10:06:09 AM 42.6664 -78.8750 87° East 466 536 37,000 -250 Level Cleveland Center
Sat 10:07:08 AM 42.6742 -78.6967 87° East 466 536 36,500 -750 Descending Cleveland Center
Sat 10:08:09 AM 42.6647 -78.5192 94° East 466 536 35,500 -1,050 Descending Cleveland Center
Sat 10:09:08 AM 42.6511 -78.3417 96° East 466 536 34,400 -1,059 Descending Cleveland Center
Sat 10:10:08 AM 42.6392 -78.1700 95° East 461 531 33,400 -992 Descending Cleveland Center
Sat 10:11:09 AM 42.6253 -78.0039 96° East 461 531 32,400 -1,000 Descending Cleveland Center
Sat 10:12:08 AM 42.6358 -77.8342 85° East 448 516 31,400 -958 Descending Cleveland Center
Sat 10:13:08 AM 42.6550 -77.6753 81° East 453 521 30,500 -950 Descending Cleveland Center
Sat 10:14:08 AM 42.6650 -77.5025 85° East 459 528 29,500 -744 Descending Cleveland Center
Sat 10:15:09 AM 42.6719 -77.3017 87° East 477 549 29,000 -221 Descending Cleveland Center
Sat 10:16:24 AM 42.6811 -77.0756 87° East 468 539 29,000  Level Boston Center
Sat 10:17:24 AM 42.6861 -76.8953 88° East 473 544 29,000  Level Boston Center
Sat 10:18:24 AM 42.6931 -76.7147 87° East 479 551 29,000  Level Boston Center
Sat 10:19:24 AM 42.6978 -76.5314 88° East 479 551 29,000  Level Boston Center
Sat 10:20:24 AM 42.7042 -76.3481 87° East 479 551 29,000  Level Boston Center
Sat 10:21:24 AM 42.7103 -76.1703 87° East 472 543 29,000 -550 Level Boston Center
Sat 10:22:24 AM 42.7142 -75.9839 88° East 477 549 27,900 -1,550 Descending Boston Center
Sat 10:23:24 AM 42.7194 -75.8061 88° East 477 549 25,900 -1,900 Descending Boston Center
Sat 10:24:24 AM 42.7219 -75.6453 89° East 451 519 24,100 -1,800 Descending Boston Center
Sat 10:25:24 AM 42.7264 -75.4900 88° East 429 494 22,300 -1,800 Descending Boston Center
Sat 10:26:24 AM 42.7283 -75.3317 89° East 414 476 20,500 -1,800 Descending Boston Center
Sat 10:27:24 AM 42.7319 -75.1850 88° East 403 464 18,700 -1,950 Descending Boston Center
Sat 10:28:24 AM 42.7356 -75.0381 88° East 391 450 16,600 -1,850 Descending Boston Center
Sat 10:29:24 AM 42.7367 -74.8911 89° East 386 444 15,000 -1,554 Descending Boston Center
Sat 10:30:16 AM 42.7389 -74.7781 88° East 371 427 13,700 -1,364 Descending Boston Center
Sat 10:30:52 AM 42.7406 -74.6961 88° East 358 412 13,000 -1,235 Descending Boston Center
Sat 10:31:24 AM 42.7400 -74.6169 91° East 362 417 12,300 -1,239 Descending Boston Center
Sat 10:32:24 AM 42.7403 -74.4953 90° East 362 417 11,100 -1,250 Descending Boston Center
Sat 10:33:24 AM 42.7428 -74.3597 89° East 340 391 9,800 -1,333 Descending Boston Center
Sat 10:33:54 AM 42.7436 -74.3089 89° East 301 346 9,100 -1,300 Descending Boston Center
Sat 10:34:24 AM 42.7444 -74.2581 89° East 306 352 8,500 -1,700 Descending Boston Center
Sat 10:34:54 AM 42.7456 -74.1872 89° East 291 335 7,400 -2,000 Descending Boston Center
Sat 10:35:24 AM 42.7442 -74.1364 92° East 289 333 6,500 -1,672 Descending Boston Center
Sat 10:35:55 AM 42.7450 -74.0797 89° East 289 333 5,700 -1,083 Descending Boston Center
Sat 10:36:36 AM 42.7497 -74.0433 80° East 289 333 5,200 -1,010 Descending Boston Center
Sat 10:37:36 AM 42.8214 -73.9800 33° Northeast 234 269 4,000 -600 Descending Boston Center
Sat 10:38:36 AM 42.8886 -73.9419 23° Northeast 227 261 4,000 -50 Level Boston Center
Sat 10:39:36 AM 42.9433 -73.8981 30° Northeast 227 261 3,900 -600 Descending Boston Center
Sat 10:40:36 AM 42.9297 -73.8239 104° East 188 216 2,800 -950 Descending Boston Center
Sat 10:41:36 AM 42.8797 -73.8114 170° South 157 181 2,000 -800 Descending Boston Center

Login

Don't have an account? Register now (free) for customized features, flight alerts, and more!